Time;durP1;ratioP1;P1;durP2;ratioP2;P2;SDS_P1;SDS_P2;PMS_P1;PMS_P2;Temp;Humidity;BMP_temperature;BMP_pressure;BME280_temperature;BME280_humidity;BME280_pressure;Samples;Min_cycle;Max_cycle;Signal;HPM_P1;HPM_P2
2022/12/10 00:00:42;;;;;;;13.98;7.90;;;;;;;;;;6207983;23;20027;-57
2022/12/10 00:03:16;;;;;;;18.75;8.50;;;;;;;;;;6208683;23;20555;-54
2022/12/10 00:05:44;;;;;;;17.88;7.80;;;;;;;;;;6210049;23;20027;-50
2022/12/10 00:08:17;;;;;;;18.00;8.30;;;;;;;;;;6211248;23;20020;-52
2022/12/10 00:10:45;;;;;;;16.30;8.15;;;;;;;;;;6210246;23;20028;-52
2022/12/10 00:13:12;;;;;;;15.00;7.85;;;;;;;;;;6209763;23;20463;-66
2022/12/10 00:15:45;;;;;;;19.13;8.32;;;;;;;;;;6210646;23;20021;-66
2022/12/10 00:18:13;;;;;;;16.05;7.45;;;;;;;;;;6209066;23;20017;-66
2022/12/10 00:20:46;;;;;;;18.25;8.65;;;;;;;;;;6209041;23;20020;-66
2022/12/10 00:23:14;;;;;;;18.70;8.18;;;;;;;;;;6210948;23;20024;-66
2022/12/10 00:25:49;;;;;;;19.65;8.23;;;;;;;;;;6211180;23;20093;-66
2022/12/10 00:28:22;;;;;;;17.60;7.93;;;;;;;;;;6210589;23;20349;-66
2022/12/10 00:30:50;;;;;;;14.45;7.60;;;;;;;;;;6208105;23;20020;-54
2022/12/10 00:33:23;;;;;;;16.88;8.30;;;;;;;;;;6210557;23;20028;-49
2022/12/10 00:35:51;;;;;;;18.98;8.32;;;;;;;;;;6208577;23;20092;-65
2022/12/10 00:38:24;;;;;;;21.98;8.05;;;;;;;;;;6208748;23;20078;-65
2022/12/10 00:40:52;;;;;;;18.75;8.48;;;;;;;;;;6208999;23;20023;-65
2022/12/10 00:43:19;;;;;;;17.70;8.27;;;;;;;;;;6210372;23;20024;-65
2022/12/10 00:45:53;;;;;;;18.90;9.07;;;;;;;;;;6208756;23;20031;-66
2022/12/10 00:48:20;;;;;;;15.68;7.78;;;;;;;;;;6209865;23;20020;-66
2022/12/10 00:51:02;;;;;;;19.00;7.57;;;;;;;;;;6207929;23;20076;-53
2022/12/10 00:53:30;;;;;;;15.97;7.63;;;;;;;;;;6208974;23;20024;-66
2022/12/10 00:56:05;;;;;;;15.98;7.93;;;;;;;;;;6207601;23;20107;-66
2022/12/10 00:58:38;;;;;;;18.17;8.07;;;;;;;;;;6209851;23;20095;-65
2022/12/10 01:01:05;;;;;;;;;;;;;;;;;;6209333;23;20029;-66
2022/12/10 01:03:40;;;;;;;16.53;7.67;;;;;;;;;;6209063;23;19981;-66
2022/12/10 01:06:16;;;;;;;16.47;7.90;;;;;;;;;;6207768;23;20615;-66
2022/12/10 01:08:51;;;;;;;17.00;7.57;;;;;;;;;;6208809;23;20017;-49
2022/12/10 01:11:20;;;;;;;16.33;7.78;;;;;;;;;;6209611;23;20021;-56
2022/12/10 01:13:48;;;;;;;17.30;7.87;;;;;;;;;;6208686;23;20044;-56
2022/12/10 01:16:22;;;;;;;15.00;7.73;;;;;;;;;;6209145;23;20021;-55
2022/12/10 01:18:49;;;;;;;18.57;8.63;;;;;;;;;;6208316;23;20407;-58
2022/12/10 01:21:24;;;;;;;17.00;8.13;;;;;;;;;;6208027;23;20092;-56
2022/12/10 01:23:52;;;;;;;15.60;7.93;;;;;;;;;;6209171;23;20032;-58
2022/12/10 01:26:20;;;;;;;16.20;7.60;;;;;;;;;;6208817;23;20120;-54
2022/12/10 01:28:55;;;;;;;16.13;7.87;;;;;;;;;;6207804;23;20020;-59
2022/12/10 01:31:23;;;;;;;11.87;6.90;;;;;;;;;;6209387;23;20021;-65
2022/12/10 01:33:58;;;;;;;16.93;7.60;;;;;;;;;;6209103;23;20031;-66
2022/12/10 01:36:30;;;;;;;13.13;6.93;;;;;;;;;;6208761;23;20098;-65
2022/12/10 01:39:05;;;;;;;13.37;7.20;;;;;;;;;;6210136;23;20025;-64
2022/12/10 01:41:43;;;;;;;13.57;6.53;;;;;;;;;;6208576;23;20048;-65
2022/12/10 01:44:18;;;;;;;13.73;6.27;;;;;;;;;;6207380;23;20455;-65
2022/12/10 01:46:46;;;;;;;14.85;6.85;;;;;;;;;;6208360;23;20362;-55
2022/12/10 01:49:46;;;;;;;14.60;6.63;;;;;;;;;;6165400;23;20052;-54
2022/12/10 01:52:20;;;;;;;11.90;6.23;;;;;;;;;;6177860;23;20354;-56
2022/12/10 01:54:54;;;;;;;13.67;6.07;;;;;;;;;;6179099;23;20025;-53
2022/12/10 01:57:26;;;;;;;15.40;6.47;;;;;;;;;;6178881;23;20052;-58
2022/12/10 02:00:01;;;;;;;13.70;6.10;;;;;;;;;;6178066;23;20024;-57
2022/12/10 02:02:33;;;;;;;14.97;6.50;;;;;;;;;;6178838;23;20056;-54
2022/12/10 02:05:08;;;;;;;11.53;5.50;;;;;;;;;;6178154;23;20021;-57
2022/12/10 02:07:35;;;;;;;;;;;;;;;;;;6178107;23;20578;-52
2022/12/10 02:10:12;;;;;;;12.10;6.17;;;;;;;;;;6178989;23;19924;-56
2022/12/10 02:12:42;;;;;;;14.37;5.93;;;;;;;;;;6177182;23;20025;-53
2022/12/10 02:15:17;;;;;;;18.17;6.97;;;;;;;;;;6178503;23;20021;-57
2022/12/10 02:17:48;;;;;;;9.57;5.73;;;;;;;;;;6176624;23;20107;-55
2022/12/10 02:20:42;;;;;;;9.43;5.80;;;;;;;;;;6178224;23;20433;-56
2022/12/10 02:23:15;;;;;;;11.27;5.77;;;;;;;;;;6178877;23;20021;-52
2022/12/10 02:25:50;;;;;;;13.65;6.05;;;;;;;;;;6177013;23;20029;-66
2022/12/10 02:28:34;;;;;;;12.07;5.03;;;;;;;;;;6177453;23;20021;-56
2022/12/10 02:31:02;;;;;;;12.30;5.80;;;;;;;;;;6179327;23;20021;-57
2022/12/10 02:33:37;;;;;;;11.13;5.10;;;;;;;;;;6179495;23;20104;-56
2022/12/10 02:36:05;;;;;;;10.13;5.80;;;;;;;;;;6177544;23;20410;-58
2022/12/10 02:38:34;;;;;;;13.07;5.80;;;;;;;;;;6178093;23;20386;-57
2022/12/10 02:41:11;;;;;;;10.53;5.53;;;;;;;;;;6179036;23;20021;-55
2022/12/10 02:43:50;;;;;;;8.55;4.45;;;;;;;;;;6176972;23;20059;-46
2022/12/10 02:46:25;;;;;;;10.60;5.77;;;;;;;;;;6177762;23;20025;-52
2022/12/10 02:49:05;;;;;;;11.37;5.00;;;;;;;;;;6192923;23;20139;-47
2022/12/10 02:51:32;;;;;;;10.87;5.03;;;;;;;;;;6207718;23;20021;-45
2022/12/10 02:54:07;;;;;;;10.93;6.07;;;;;;;;;;6207244;23;20031;-49
2022/12/10 02:56:43;;;;;;;8.33;4.97;;;;;;;;;;6208649;23;20017;-48
2022/12/10 02:59:20;;;;;;;10.00;5.33;;;;;;;;;;6207797;23;20708;-47
2022/12/10 03:02:00;;;;;;;8.83;4.53;;;;;;;;;;6208007;23;20081;-46
2022/12/10 03:04:38;;;;;;;11.67;5.23;;;;;;;;;;6208972;23;20394;-52
2022/12/10 03:07:16;;;;;;;9.20;5.20;;;;;;;;;;6207575;23;20096;-51
2022/12/10 03:09:54;;;;;;;11.27;5.67;;;;;;;;;;6206648;23;20024;-54
2022/12/10 03:12:30;;;;;;;10.07;5.00;;;;;;;;;;6208667;23;20040;-52
2022/12/10 03:15:05;;;;;;;9.00;5.17;;;;;;;;;;6208115;23;20024;-54
2022/12/10 03:17:33;;;;;;;9.37;4.87;;;;;;;;;;6202282;23;20031;-51
2022/12/10 03:20:01;;;;;;;9.17;4.77;;;;;;;;;;6208136;23;20067;-54
2022/12/10 03:22:36;;;;;;;7.20;4.47;;;;;;;;;;6208726;23;20078;-53
2022/12/10 03:25:04;;;;;;;8.77;4.40;;;;;;;;;;6209393;23;20103;-63
2022/12/10 03:27:40;;;;;;;7.67;4.27;;;;;;;;;;6206262;23;20062;-53
2022/12/10 03:30:08;;;;;;;9.67;4.73;;;;;;;;;;6209129;23;20095;-56
2022/12/10 03:32:36;;;;;;;10.20;4.03;;;;;;;;;;6207473;23;20086;-57
2022/12/10 03:35:10;;;;;;;6.17;3.93;;;;;;;;;;6207067;23;20087;-57
2022/12/10 03:37:37;;;;;;;7.43;4.10;;;;;;;;;;6208031;23;20096;-56
2022/12/10 03:40:12;;;;;;;9.03;4.20;;;;;;;;;;6208359;23;20099;-55
2022/12/10 03:42:39;;;;;;;9.70;4.27;;;;;;;;;;6207007;23;20473;-51
2022/12/10 03:45:13;;;;;;;9.63;4.33;;;;;;;;;;6208556;23;20025;-64
2022/12/10 03:47:40;;;;;;;;;;;;;;;;;;6207601;23;20462;-64
2022/12/10 03:50:21;;;;;;;9.60;4.90;;;;;;;;;;6206964;23;20329;-64
2022/12/10 03:52:48;;;;;;;9.50;4.37;;;;;;;;;;6208421;23;20406;-66
2022/12/10 03:55:23;;;;;;;9.43;4.40;;;;;;;;;;6207029;23;20481;-66
2022/12/10 03:57:50;;;;;;;8.97;4.37;;;;;;;;;;6206731;23;20044;-66
2022/12/10 04:00:17;;;;;;;9.57;5.05;;;;;;;;;;6208175;23;20362;-66
2022/12/10 04:02:51;;;;;;;10.70;5.00;;;;;;;;;;6207022;23;20021;-54
2022/12/10 04:05:18;;;;;;;;;;;;;;;;;;6208112;23;20361;-67
2022/12/10 04:07:45;;;;;;;7.87;4.43;;;;;;;;;;6206326;23;19959;-67
2022/12/10 04:10:19;;;;;;;11.57;4.83;;;;;;;;;;6208165;23;20029;-66
2022/12/10 04:16:26;;;;;;;;;;;;;;;;;;6208637;23;20128;-67
2022/12/10 04:18:25;;;;;;;9.33;4.90;;;;;;;;;;6206140;23;20025;-67
2022/12/10 04:26:53;;;;;;;10.83;4.47;;;;;;;;;;6207467;23;20096;-58
2022/12/10 04:29:27;;;;;;;11.57;4.87;;;;;;;;;;6209350;23;20031;-58
2022/12/10 04:31:55;;;;;;;8.13;4.50;;;;;;;;;;6208656;23;20092;-55
2022/12/10 04:34:29;;;;;;;7.27;4.37;;;;;;;;;;6207205;23;20031;-57
2022/12/10 04:36:58;;;;;;;7.90;4.23;;;;;;;;;;6206925;23;20031;-55
2022/12/10 04:39:25;;;;;;;6.97;3.30;;;;;;;;;;6208401;23;20027;-56
2022/12/10 04:41:59;;;;;;;5.63;3.83;;;;;;;;;;6207205;23;20743;-47
2022/12/10 04:44:27;;;;;;;8.10;4.20;;;;;;;;;;6207101;23;20059;-49
2022/12/10 04:46:54;;;;;;;;;;;;;;;;;;6208762;23;20123;-48
2022/12/10 04:49:34;;;;;;;9.33;4.17;;;;;;;;;;6206700;23;19919;-50
2022/12/10 04:52:01;;;;;;;6.60;3.70;;;;;;;;;;6207986;23;20108;-48
2022/12/10 04:54:36;;;;;;;6.33;3.57;;;;;;;;;;6210164;23;20033;-50
2022/12/10 04:57:06;;;;;;;6.23;3.37;;;;;;;;;;6209008;23;20028;-56
2022/12/10 04:59:33;;;;;;;7.30;3.80;;;;;;;;;;6210745;23;20111;-67
2022/12/10 05:02:07;;;;;;;5.00;3.20;;;;;;;;;;6209814;23;20026;-53
2022/12/10 05:04:34;;;;;;;6.50;3.73;;;;;;;;;;6206984;23;20343;-52
2022/12/10 05:07:09;;;;;;;5.07;3.60;;;;;;;;;;6208367;23;20466;-56
2022/12/10 05:09:36;;;;;;;;;;;;;;;;;;6210087;23;20403;-54
2022/12/10 05:12:03;;;;;;;7.50;4.70;;;;;;;;;;6208775;23;19941;-49
2022/12/10 05:14:37;;;;;;;8.47;3.67;;;;;;;;;;6183016;23;20078;-57
2022/12/10 05:17:10;;;;;;;5.60;3.40;;;;;;;;;;6205819;23;20020;-64
2022/12/10 05:19:45;;;;;;;7.03;4.03;;;;;;;;;;6207669;23;20027;-67
2022/12/10 05:25:05;;;;;;;5.73;3.63;;;;;;;;;;6209308;23;20020;-48
2022/12/10 05:27:33;;;;;;;8.43;4.20;;;;;;;;;;6208007;23;20031;-47
2022/12/10 05:30:00;;;;;;;6.80;3.70;;;;;;;;;;6209780;23;20016;-47
2022/12/10 05:32:35;;;;;;;10.93;4.87;;;;;;;;;;6208894;23;20028;-48
2022/12/10 05:35:03;;;;;;;7.70;4.27;;;;;;;;;;6207486;23;20071;-46
2022/12/10 05:37:30;;;;;;;8.13;3.73;;;;;;;;;;6208604;23;20028;-64
2022/12/10 05:40:07;;;;;;;6.90;3.60;;;;;;;;;;6208423;23;20016;-63
2022/12/10 05:42:35;;;;;;;6.27;4.03;;;;;;;;;;6206839;23;20025;-65
2022/12/10 05:45:02;;;;;;;;;;;;;;;;;;6207552;23;20021;-64
2022/12/10 05:47:35;;;;;;;5.57;3.60;;;;;;;;;;6208755;23;20275;-63
2022/12/10 05:50:02;;;;;;;;;;;;;;;;;;6208089;23;20020;-64
2022/12/10 05:52:43;;;;;;;7.70;4.20;;;;;;;;;;6209264;23;19990;-64
2022/12/10 05:55:10;;;;;;;8.03;4.10;;;;;;;;;;6209422;23;20327;-51
2022/12/10 05:57:45;;;;;;;9.97;4.47;;;;;;;;;;6207726;23;20025;-51
2022/12/10 06:00:18;;;;;;;6.00;3.90;;;;;;;;;;6208426;23;20572;-51
2022/12/10 06:02:45;;;;;;;;;;;;;;;;;;6208072;23;20478;-51
2022/12/10 06:05:19;;;;;;;6.10;4.17;;;;;;;;;;6210186;23;19927;-53
2022/12/10 06:07:47;;;;;;;7.00;3.77;;;;;;;;;;6209578;23;20021;-53
2022/12/10 06:10:21;;;;;;;7.17;3.63;;;;;;;;;;6209904;23;20042;-53
2022/12/10 06:12:48;;;;;;;6.37;3.83;;;;;;;;;;6208490;23;20358;-53
2022/12/10 06:15:15;;;;;;;;;;;;;;;;;;6208810;23;20020;-59
2022/12/10 06:17:48;;;;;;;7.23;3.83;;;;;;;;;;6208597;23;20352;-66
2022/12/10 06:20:16;;;;;;;11.33;6.17;;;;;;;;;;6209045;23;20034;-65
2022/12/10 06:22:50;;;;;;;14.17;6.97;;;;;;;;;;6208574;23;20058;-66
2022/12/10 06:25:17;;;;;;;11.10;5.70;;;;;;;;;;6207723;23;20042;-66
2022/12/10 06:27:44;;;;;;;9.27;5.23;;;;;;;;;;6208850;23;20768;-66
2022/12/10 06:30:17;;;;;;;6.97;4.37;;;;;;;;;;6207941;23;20103;-66
2022/12/10 06:32:45;;;;;;;;;;;;;;;;;;6181373;23;20024;-52
2022/12/10 06:35:12;;;;;;;12.40;6.20;;;;;;;;;;6208923;23;19926;-45
2022/12/10 06:37:45;;;;;;;9.83;4.60;;;;;;;;;;6209057;23;20024;-58
2022/12/10 06:40:13;;;;;;;7.73;4.07;;;;;;;;;;6208615;23;20095;-53
2022/12/10 06:42:46;;;;;;;10.60;4.50;;;;;;;;;;6209430;23;20021;-54
2022/12/10 06:45:14;;;;;;;6.72;3.90;;;;;;;;;;6208371;23;20056;-51
2022/12/10 06:47:41;;;;;;;8.27;4.37;;;;;;;;;;6208933;23;20020;-56
2022/12/10 06:50:21;;;;;;;7.90;4.07;;;;;;;;;;6209430;23;20414;-55
2022/12/10 06:52:50;;;;;;;8.47;3.70;;;;;;;;;;6208604;23;20027;-47
2022/12/10 06:55:24;;;;;;;8.63;4.90;;;;;;;;;;6208203;23;20466;-53
2022/12/10 06:57:52;;;;;;;;;;;;;;;;;;6209913;23;20382;-53
2022/12/10 07:00:20;;;;;;;8.83;4.43;;;;;;;;;;6208949;23;19930;-52
2022/12/10 07:02:53;;;;;;;10.40;5.33;;;;;;;;;;6206334;23;20024;-52
2022/12/10 07:05:21;;;;;;;8.70;5.15;;;;;;;;;;6210268;23;20029;-51
2022/12/10 07:07:55;;;;;;;13.20;5.30;;;;;;;;;;6209134;23;20410;-54
2022/12/10 07:10:22;;;;;;;;;;;;;;;;;;6209784;23;20020;-64
2022/12/10 07:12:49;;;;;;;13.20;7.03;;;;;;;;;;6208287;23;20326;-66
2022/12/10 07:15:23;;;;;;;11.43;5.80;;;;;;;;;;6209422;23;20021;-54
2022/12/10 07:17:51;;;;;;;10.37;5.90;;;;;;;;;;6208199;23;20021;-56
2022/12/10 07:20:25;;;;;;;9.73;5.03;;;;;;;;;;6184285;23;20024;-57
2022/12/10 07:22:53;;;;;;;10.38;5.72;;;;;;;;;;6209205;23;20362;-56
2022/12/10 07:25:26;;;;;;;10.90;6.53;;;;;;;;;;6208589;23;20529;-56
2022/12/10 07:27:54;;;;;;;10.20;4.55;;;;;;;;;;6208975;23;20113;-53
2022/12/10 07:30:24;;;;;;;11.47;5.37;;;;;;;;;;6183792;23;20160;-57
2022/12/10 07:32:58;;;;;;;13.87;6.30;;;;;;;;;;6206074;23;20024;-51
2022/12/10 07:35:25;;;;;;;;;;;;;;;;;;6209453;23;20034;-64
2022/12/10 07:37:59;;;;;;;9.30;4.83;;;;;;;;;;6207506;23;19919;-64
2022/12/10 07:40:26;;;;;;;;;;;;;;;;;;6208308;23;20433;-64
2022/12/10 07:42:53;;;;;;;7.20;3.97;;;;;;;;;;6206818;23;19915;-64
2022/12/10 07:45:26;;;;;;;10.37;5.43;;;;;;;;;;6208866;23;20059;-65
2022/12/10 07:47:54;;;;;;;10.52;5.25;;;;;;;;;;6179222;23;20042;-65
2022/12/10 07:50:40;;;;;;;7.10;4.37;;;;;;;;;;6206133;23;20021;-52
2022/12/10 07:53:07;;;;;;;8.77;4.93;;;;;;;;;;6204294;23;20020;-47
2022/12/10 07:55:42;;;;;;;9.37;4.57;;;;;;;;;;6207841;23;20047;-46
2022/12/10 07:58:09;;;;;;;13.15;6.47;;;;;;;;;;6207316;23;20027;-47
2022/12/10 08:00:36;;;;;;;6.68;4.30;;;;;;;;;;6208356;23;20035;-48
2022/12/10 08:03:10;;;;;;;10.90;4.40;;;;;;;;;;6208215;23;20394;-52
2022/12/10 08:05:37;;;;;;;8.63;5.73;;;;;;;;;;6207616;23;20029;-48
2022/12/10 08:08:04;;;;;;;9.77;5.95;;;;;;;;;;6209305;23;20073;-66
2022/12/10 08:10:45;;;;;;;11.77;5.13;;;;;;;;;;6208977;23;20024;-66
2022/12/10 08:13:13;;;;;;;8.90;5.37;;;;;;;;;;6207884;23;20095;-66
2022/12/10 08:15:47;;;;;;;8.83;5.30;;;;;;;;;;6207969;23;20099;-66
2022/12/10 08:18:14;;;;;;;9.17;5.93;;;;;;;;;;6205887;23;20043;-66
2022/12/10 08:20:48;;;;;;;9.83;5.60;;;;;;;;;;6205539;23;20027;-66
2022/12/10 08:23:21;;;;;;;9.90;5.80;;;;;;;;;;6205068;23;20500;-66
2022/12/10 08:25:55;;;;;;;8.83;5.17;;;;;;;;;;6206914;23;20024;-66
2022/12/10 08:28:29;;;;;;;10.17;6.07;;;;;;;;;;6209783;23;20020;-55
2022/12/10 08:31:04;;;;;;;10.20;5.73;;;;;;;;;;6209823;23;20021;-66
2022/12/10 08:33:38;;;;;;;9.83;5.63;;;;;;;;;;6208257;23;20021;-66
2022/12/10 08:36:06;;;;;;;11.25;6.30;;;;;;;;;;6209217;23;20445;-66
2022/12/10 08:38:34;;;;;;;10.73;6.28;;;;;;;;;;6207468;23;20027;-66
2022/12/10 08:41:15;;;;;;;11.63;6.25;;;;;;;;;;6209201;23;20025;-66
2022/12/10 08:43:49;;;;;;;13.93;6.68;;;;;;;;;;6208918;23;20023;-66
2022/12/10 08:46:24;;;;;;;11.75;6.30;;;;;;;;;;6209086;23;20020;-66
2022/12/10 08:48:51;;;;;;;10.73;6.50;;;;;;;;;;6209642;23;20455;-53
2022/12/10 08:51:32;;;;;;;8.85;5.97;;;;;;;;;;6179380;23;20683;-54
2022/12/10 08:53:59;;;;;;;9.80;5.78;;;;;;;;;;6177668;23;20052;-56
2022/12/10 08:56:34;;;;;;;10.88;6.50;;;;;;;;;;6177275;23;20039;-55
2022/12/10 08:59:01;;;;;;;;;;;;;;;;;;6179965;23;20818;-57
2022/12/10 09:01:28;;;;;;;12.35;6.22;;;;;;;;;;6178226;23;20365;-55
2022/12/10 09:04:02;;;;;;;13.00;6.15;;;;;;;;;;6179571;23;20507;-55
2022/12/10 09:06:30;;;;;;;12.13;5.97;;;;;;;;;;6179916;23;20060;-44
2022/12/10 09:08:57;;;;;;;11.07;6.50;;;;;;;;;;6176900;23;20027;-50
2022/12/10 09:11:32;;;;;;;12.50;7.10;;;;;;;;;;6178662;23;20025;-48
2022/12/10 09:13:59;;;;;;;13.85;7.00;;;;;;;;;;6180688;23;20035;-49
2022/12/10 09:16:31;;;;;;;14.18;6.65;;;;;;;;;;6178998;23;20033;-50
2022/12/10 09:19:05;;;;;;;11.23;6.78;;;;;;;;;;6180094;23;20055;-50
2022/12/10 09:21:32;;;;;;;13.48;7.50;;;;;;;;;;6180820;23;20031;-50
2022/12/10 09:24:06;;;;;;;13.00;7.07;;;;;;;;;;6178841;23;20021;-63
2022/12/10 09:26:33;;;;;;;;;;;;;;;;;;6181797;23;20027;-49
2022/12/10 09:29:00;;;;;;;12.85;7.10;;;;;;;;;;6178993;23;19994;-53
2022/12/10 09:31:33;;;;;;;13.85;7.40;;;;;;;;;;6180509;23;20017;-52
2022/12/10 09:34:01;;;;;;;14.45;8.27;;;;;;;;;;6179968;23;20399;-56
2022/12/10 09:36:35;;;;;;;11.55;7.18;;;;;;;;;;6178773;23;20017;-55
2022/12/10 09:39:02;;;;;;;15.25;7.80;;;;;;;;;;6178802;23;20100;-56
2022/12/10 09:41:38;;;;;;;14.88;7.70;;;;;;;;;;6180300;23;20029;-55
2022/12/10 09:44:31;;;;;;;11.82;7.50;;;;;;;;;;6178991;23;20652;-62
2022/12/10 09:47:00;;;;;;;13.65;7.18;;;;;;;;;;6178510;23;20057;-62
2022/12/10 09:49:52;;;;;;;11.35;7.05;;;;;;;;;;6162404;23;20027;-62
2022/12/10 09:52:27;;;;;;;14.13;8.15;;;;;;;;;;6209309;23;20451;-62
2022/12/10 09:55:03;;;;;;;13.27;8.07;;;;;;;;;;6185104;23;20044;-63
2022/12/10 09:57:41;;;;;;;11.73;7.53;;;;;;;;;;6210115;23;20028;-62
2022/12/10 10:00:22;;;;;;;15.55;8.45;;;;;;;;;;6209466;23;20024;-61
2022/12/10 10:02:50;;;;;;;15.18;7.72;;;;;;;;;;6205822;23;20496;-50
2022/12/10 10:05:25;;;;;;;13.52;7.78;;;;;;;;;;6208469;23;20031;-46
2022/12/10 10:07:53;;;;;;;12.52;8.00;;;;;;;;;;6208655;23;20021;-51
2022/12/10 10:10:21;;;;;;;16.13;8.55;;;;;;;;;;6210626;23;20024;-53
2022/12/10 10:12:57;;;;;;;12.35;7.45;;;;;;;;;;6208688;23;20025;-52
2022/12/10 10:15:26;;;;;;;14.60;8.23;;;;;;;;;;6208840;23;20433;-51
2022/12/10 10:18:04;;;;;;;12.43;7.60;;;;;;;;;;6208589;23;20055;-55
2022/12/10 10:20:31;;;;;;;12.48;7.60;;;;;;;;;;6210579;23;20017;-51
2022/12/10 10:23:05;;;;;;;11.80;7.00;;;;;;;;;;6208856;23;20099;-54
2022/12/10 10:25:32;;;;;;;11.48;7.20;;;;;;;;;;6209852;23;20038;-50
2022/12/10 10:28:06;;;;;;;10.90;7.03;;;;;;;;;;6208931;23;20047;-52
2022/12/10 10:30:47;;;;;;;11.80;7.57;;;;;;;;;;6209033;23;20396;-54
2022/12/10 10:33:28;;;;;;;10.50;6.93;;;;;;;;;;6208815;23;20052;-52
2022/12/10 10:35:58;;;;;;;11.82;7.82;;;;;;;;;;6209161;23;20016;-51
2022/12/10 10:38:37;;;;;;;11.20;7.15;;;;;;;;;;6209385;23;20021;-53
2022/12/10 10:41:05;;;;;;;9.95;6.68;;;;;;;;;;6208829;23;20099;-44
2022/12/10 10:43:41;;;;;;;11.38;6.60;;;;;;;;;;6208717;23;20024;-50
2022/12/10 10:46:11;;;;;;;11.50;6.60;;;;;;;;;;6208293;23;20020;-47
2022/12/10 10:48:38;;;;;;;10.25;6.30;;;;;;;;;;6208460;23;20024;-46
2022/12/10 10:51:21;;;;;;;10.13;6.57;;;;;;;;;;6208110;23;20055;-45
2022/12/10 10:53:52;;;;;;;11.05;6.90;;;;;;;;;;6208869;23;20079;-45
2022/12/10 10:56:33;;;;;;;11.15;6.50;;;;;;;;;;6207913;23;20028;-43
2022/12/10 10:59:05;;;;;;;12.82;7.50;;;;;;;;;;6207103;23;20020;-52
2022/12/10 11:01:51;;;;;;;13.90;7.75;;;;;;;;;;6209011;23;20104;-62
2022/12/10 11:04:38;;;;;;;13.25;7.75;;;;;;;;;;6208598;23;20074;-45
2022/12/10 11:07:35;;;;;;;12.70;7.72;;;;;;;;;;6206423;23;20017;-44
2022/12/10 11:10:03;;;;;;;14.60;8.30;;;;;;;;;;6188630;23;20095;-47
2022/12/10 11:12:39;;;;;;;12.30;7.22;;;;;;;;;;6207875;23;20071;-44
2022/12/10 11:15:24;;;;;;;13.73;7.32;;;;;;;;;;6207406;23;20035;-44
2022/12/10 11:17:59;;;;;;;12.82;7.57;;;;;;;;;;6182030;23;20365;-63
2022/12/10 11:20:28;;;;;;;12.90;6.75;;;;;;;;;;6207646;23;20107;-62
2022/12/10 11:22:56;;;;;;;12.43;7.43;;;;;;;;;;6209282;23;20017;-65
2022/12/10 11:25:33;;;;;;;14.30;7.28;;;;;;;;;;6208449;23;20020;-64
2022/12/10 11:28:17;;;;;;;14.63;7.63;;;;;;;;;;6208101;23;20074;-64
2022/12/10 11:31:00;;;;;;;11.30;7.45;;;;;;;;;;6208106;23;20020;-64
2022/12/10 11:33:38;;;;;;;11.45;7.47;;;;;;;;;;6206304;23;20482;-64
2022/12/10 11:36:24;;;;;;;12.60;7.57;;;;;;;;;;6206568;23;20031;-64
2022/12/10 11:39:00;;;;;;;12.60;7.50;;;;;;;;;;6180596;23;20062;-63
2022/12/10 11:42:06;;;;;;;12.93;7.50;;;;;;;;;;6207427;23;20107;-51
2022/12/10 11:44:39;;;;;;;13.48;7.70;;;;;;;;;;6126014;23;20042;-51
2022/12/10 11:47:13;;;;;;;13.93;7.50;;;;;;;;;;6205982;23;20016;-48
2022/12/10 11:49:46;;;;;;;11.85;7.32;;;;;;;;;;6204487;23;20521;-47
2022/12/10 11:52:24;;;;;;;10.27;7.05;;;;;;;;;;6205285;23;20016;-49
2022/12/10 11:55:10;;;;;;;14.80;7.80;;;;;;;;;;6206922;23;20104;-47
2022/12/10 11:58:05;;;;;;;13.98;7.95;;;;;;;;;;6206676;23;20027;-62
2022/12/10 12:00:44;;;;;;;11.57;7.32;;;;;;;;;;6131761;23;20091;-64
2022/12/10 12:03:47;;;;;;;16.17;7.97;;;;;;;;;;6205578;23;20103;-64
2022/12/10 12:06:34;;;;;;;12.23;7.05;;;;;;;;;;6206664;23;20031;-63
2022/12/10 12:09:23;;;;;;;14.85;8.35;;;;;;;;;;6205374;23;20016;-64
2022/12/10 12:12:03;;;;;;;12.77;7.43;;;;;;;;;;6207173;23;20017;-64
2022/12/10 12:14:40;;;;;;;12.35;7.72;;;;;;;;;;6205675;23;20024;-64
2022/12/10 12:17:31;;;;;;;11.63;7.45;;;;;;;;;;6207238;23;20021;-62
2022/12/10 12:20:17;;;;;;;12.48;7.60;;;;;;;;;;6194441;23;20027;-52
2022/12/10 12:22:48;;;;;;;11.93;7.82;;;;;;;;;;6206792;23;20100;-52
2022/12/10 12:25:30;;;;;;;14.43;8.57;;;;;;;;;;6207863;23;20104;-51
2022/12/10 12:28:05;;;;;;;15.48;8.73;;;;;;;;;;6206682;23;20020;-49
2022/12/10 12:30:39;;;;;;;16.73;9.43;;;;;;;;;;6207554;23;20028;-50
2022/12/10 12:33:12;;;;;;;15.25;9.38;;;;;;;;;;6207150;23;20020;-52
2022/12/10 12:35:46;;;;;;;13.70;8.90;;;;;;;;;;6206485;23;20091;-58
2022/12/10 12:38:13;;;;;;;14.75;9.50;;;;;;;;;;6206036;23;20016;-63
2022/12/10 12:40:51;;;;;;;14.18;8.55;;;;;;;;;;6207659;23;20020;-62
2022/12/10 12:43:22;;;;;;;15.15;9.20;;;;;;;;;;6205476;23;20134;-62
2022/12/10 12:45:57;;;;;;;17.27;8.98;;;;;;;;;;6182031;23;20542;-61
2022/12/10 12:48:24;;;;;;;;;;;;;;;;;;6201031;23;20028;-63
2022/12/10 12:51:10;;;;;;;17.70;8.60;;;;;;;;;;6202417;23;19919;-62
2022/12/10 12:53:37;;;;;;;17.98;9.55;;;;;;;;;;6180588;23;20067;-62
2022/12/10 12:56:30;;;;;;;15.52;9.05;;;;;;;;;;6207436;23;20512;-64
2022/12/10 12:58:58;;;;;;;13.90;8.82;;;;;;;;;;6206606;23;20099;-45
2022/12/10 13:01:38;;;;;;;14.68;8.77;;;;;;;;;;6207887;23;20092;-47
2022/12/10 13:04:06;;;;;;;15.68;8.65;;;;;;;;;;6203424;23;20756;-46
2022/12/10 13:06:44;;;;;;;14.38;7.80;;;;;;;;;;6207634;23;20462;-44
2022/12/10 13:09:14;;;;;;;16.08;9.52;;;;;;;;;;6206742;23;20054;-45
2022/12/10 13:12:00;;;;;;;15.93;8.68;;;;;;;;;;6207903;23;20039;-45
2022/12/10 13:14:30;;;;;;;17.00;9.48;;;;;;;;;;6207595;23;20532;-57
2022/12/10 13:17:24;;;;;;;16.33;9.65;;;;;;;;;;6207141;23;20024;-51
2022/12/10 13:19:52;;;;;;;9.20;5.80;;;;;;;;;;6208042;23;20052;-51
2022/12/10 13:22:37;;;;;;;12.82;7.97;;;;;;;;;;6207769;23;20103;-51
2022/12/10 13:25:18;;;;;;;13.35;8.18;;;;;;;;;;6209362;23;20025;-50
2022/12/10 13:27:56;;;;;;;13.55;8.02;;;;;;;;;;6208443;23;20027;-52
2022/12/10 13:30:34;;;;;;;14.35;8.15;;;;;;;;;;6209376;23;20016;-50
2022/12/10 13:33:31;;;;;;;17.60;8.23;;;;;;;;;;6208134;23;20426;-63
2022/12/10 13:36:00;;;;;;;17.25;9.07;;;;;;;;;;6204558;23;20421;-52
2022/12/10 13:38:40;;;;;;;10.80;7.07;;;;;;;;;;6206745;23;20020;-52
2022/12/10 13:46:53;;;;;;;14.38;8.55;;;;;;;;;;6208249;23;20052;-52
2022/12/10 13:49:50;;;;;;;16.02;9.82;;;;;;;;;;6208034;23;20025;-50
2022/12/10 13:52:22;;;;;;;15.05;8.55;;;;;;;;;;6177605;23;20017;-53
2022/12/10 13:54:55;;;;;;;;;;;;;;;;;;6178527;23;20541;-52
2022/12/10 13:57:48;;;;;;;14.90;8.27;;;;;;;;;;6177714;23;20342;-52
2022/12/10 14:00:32;;;;;;;12.55;8.02;;;;;;;;;;6178359;23;20021;-49
2022/12/10 14:03:05;;;;;;;10.88;6.95;;;;;;;;;;6180233;23;20924;-53
2022/12/10 14:05:33;;;;;;;;;;;;;;;;;;6179030;23;20027;-51
2022/12/10 14:08:09;;;;;;;10.75;6.20;;;;;;;;;;6178782;23;19927;-54
2022/12/10 14:10:37;;;;;;;12.13;6.22;;;;;;;;;;6178677;23;20064;-62
2022/12/10 14:13:13;;;;;;;9.90;5.70;;;;;;;;;;6177405;23;20095;-63
2022/12/10 14:15:40;;;;;;;10.10;6.65;;;;;;;;;;6178526;23;20025;-64
2022/12/10 14:18:15;;;;;;;10.43;6.28;;;;;;;;;;6179069;23;20027;-65
2022/12/10 14:20:45;;;;;;;12.45;5.93;;;;;;;;;;6177431;23;20550;-64
2022/12/10 14:23:32;;;;;;;11.85;5.55;;;;;;;;;;6178409;23;20711;-64
2022/12/10 14:26:19;;;;;;;8.32;5.20;;;;;;;;;;6177457;23;20108;-64
2022/12/10 14:29:00;;;;;;;7.95;5.38;;;;;;;;;;6176107;23;20095;-53
2022/12/10 14:31:39;;;;;;;8.73;5.22;;;;;;;;;;6177954;23;20598;-53
2022/12/10 14:34:14;;;;;;;9.30;5.47;;;;;;;;;;6178007;23;20025;-63
2022/12/10 14:36:46;;;;;;;9.07;5.47;;;;;;;;;;6177973;23;20029;-63
2022/12/10 14:39:20;;;;;;;8.85;5.40;;;;;;;;;;6178641;23;20079;-63
2022/12/10 14:41:48;;;;;;;9.10;5.40;;;;;;;;;;6178056;23;20021;-63
2022/12/10 14:44:17;;;;;;;9.95;5.50;;;;;;;;;;6179974;23;20039;-63
2022/12/10 14:46:50;;;;;;;8.45;5.70;;;;;;;;;;6179167;23;20021;-63
2022/12/10 14:49:21;;;;;;;9.98;5.28;;;;;;;;;;6178984;23;20025;-51
2022/12/10 14:52:02;;;;;;;10.80;6.03;;;;;;;;;;6207541;23;20474;-51
2022/12/10 14:54:35;;;;;;;12.45;5.85;;;;;;;;;;6207771;23;20026;-55
2022/12/10 14:57:13;;;;;;;12.40;6.20;;;;;;;;;;6200382;23;20496;-48
2022/12/10 14:59:43;;;;;;;11.23;6.55;;;;;;;;;;6206381;23;20527;-51
2022/12/10 15:02:19;;;;;;;9.98;5.65;;;;;;;;;;6208468;23;20026;-53
2022/12/10 15:04:47;;;;;;;12.52;5.93;;;;;;;;;;6208424;23;20124;-54
2022/12/10 15:07:17;;;;;;;10.82;6.28;;;;;;;;;;6207803;23;20029;-53
2022/12/10 15:09:52;;;;;;;10.55;5.65;;;;;;;;;;6208453;23;20357;-64
2022/12/10 15:12:36;;;;;;;11.63;6.20;;;;;;;;;;6209387;23;20060;-56
2022/12/10 15:15:14;;;;;;;12.23;6.85;;;;;;;;;;6207638;23;20028;-55
2022/12/10 15:17:43;;;;;;;11.90;6.00;;;;;;;;;;6207940;23;20036;-56
2022/12/10 15:20:25;;;;;;;14.00;6.45;;;;;;;;;;6206895;23;20025;-53
2022/12/10 15:22:53;;;;;;;14.93;7.15;;;;;;;;;;6207906;23;20838;-54
2022/12/10 15:25:28;;;;;;;11.75;6.53;;;;;;;;;;6207366;23;20025;-56
2022/12/10 15:27:59;;;;;;;12.50;6.80;;;;;;;;;;6209295;23;20021;-47
2022/12/10 15:30:38;;;;;;;14.02;6.53;;;;;;;;;;6206772;23;20024;-44
2022/12/10 15:33:19;;;;;;;11.82;6.28;;;;;;;;;;6205942;23;20494;-44
2022/12/10 15:35:54;;;;;;;10.57;6.13;;;;;;;;;;6202872;23;20028;-45